createdAt,value
2023-02-14T00:00:43.782Z,8.65
2023-02-14T00:03:16.232Z,8.98
2023-02-14T00:05:48.164Z,8.98
2023-02-14T00:08:20.100Z,9.82
2023-02-14T00:10:52.100Z,9.10
2023-02-14T00:13:25.735Z,10.07
2023-02-14T00:15:57.857Z,11.00
2023-02-14T00:18:48.491Z,9.80
2023-02-14T00:21:20.483Z,10.95
2023-02-14T00:23:52.589Z,9.13
2023-02-14T00:26:24.532Z,10.65
2023-02-14T00:28:56.558Z,9.95
2023-02-14T00:31:28.698Z,10.13
2023-02-14T00:34:00.700Z,9.82
2023-02-14T00:36:32.795Z,10.35
2023-02-14T00:39:06.850Z,9.65
2023-02-14T00:41:39.379Z,9.70
2023-02-14T00:44:12.562Z,10.52
2023-02-14T00:46:44.574Z,10.70
2023-02-14T00:49:16.642Z,9.60
2023-02-14T00:51:48.570Z,8.93
2023-02-14T00:54:20.471Z,9.07
2023-02-14T00:56:52.450Z,9.32
2023-02-14T00:59:24.470Z,8.77
2023-02-14T01:01:56.434Z,8.52
2023-02-14T01:04:28.330Z,9.85
2023-02-14T01:07:00.296Z,9.00
2023-02-14T01:09:32.188Z,9.18
2023-02-14T01:12:04.331Z,8.32
2023-02-14T01:14:36.343Z,8.68
2023-02-14T01:17:08.309Z,8.65
2023-02-14T01:19:42.758Z,9.05
2023-02-14T01:22:14.773Z,8.68
2023-02-14T01:24:46.730Z,9.07
2023-02-14T01:27:18.855Z,6.55
2023-02-14T01:29:50.879Z,8.50
2023-02-14T01:32:22.987Z,8.98
2023-02-14T01:34:55.108Z,8.10
2023-02-14T01:37:27.382Z,8.45
2023-02-14T01:39:59.510Z,8.15
2023-02-14T01:42:33.699Z,9.07
2023-02-14T01:45:15.044Z,10.43
2023-02-14T01:47:52.104Z,10.13
2023-02-14T01:50:32.614Z,10.65
2023-02-14T01:53:08.569Z,9.90
2023-02-14T01:55:44.759Z,9.38
2023-02-14T01:58:25.395Z,9.80
2023-02-14T02:00:58.298Z,8.18
2023-02-14T02:03:38.869Z,8.18
2023-02-14T02:06:22.447Z,9.35
2023-02-14T02:09:31.473Z,9.45
2023-02-14T02:12:03.948Z,10.15
2023-02-14T02:14:36.296Z,9.38
2023-02-14T02:17:42.174Z,9.95
2023-02-14T02:20:35.301Z,9.05
2023-02-14T02:23:48.753Z,9.18
2023-02-14T02:26:23.581Z,9.90
2023-02-14T02:29:10.798Z,9.85
2023-02-14T02:31:51.695Z,9.43
2023-02-14T02:34:26.627Z,8.88
2023-02-14T02:36:58.421Z,9.63
2023-02-14T02:39:45.413Z,10.60
2023-02-14T02:42:30.194Z,10.52
2023-02-14T02:45:10.097Z,9.07
2023-02-14T02:47:53.215Z,10.57
2023-02-14T02:51:12.945Z,10.32
2023-02-14T02:53:54.294Z,10.73
2023-02-14T02:56:45.728Z,9.52
2023-02-14T02:59:38.088Z,11.18
2023-02-14T03:02:13.114Z,11.63
2023-02-14T03:04:56.218Z,12.18
2023-02-14T03:07:37.373Z,12.05
2023-02-14T03:10:15.234Z,12.05
2023-02-14T03:12:54.711Z,11.40
2023-02-14T03:15:47.898Z,9.07
2023-02-14T03:18:44.770Z,12.10
2023-02-14T03:21:19.683Z,12.30
2023-02-14T03:23:51.521Z,11.57
2023-02-14T03:26:38.261Z,13.05
2023-02-14T03:29:46.730Z,14.70
2023-02-14T03:32:40.610Z,13.75
2023-02-14T03:35:31.421Z,12.68
2023-02-14T03:38:15.896Z,13.15
2023-02-14T03:41:04.430Z,12.57
2023-02-14T03:43:42.844Z,13.90
2023-02-14T03:46:38.268Z,11.93
2023-02-14T03:49:14.866Z,14.45
2023-02-14T03:51:51.105Z,14.40
2023-02-14T03:54:26.334Z,12.65
2023-02-14T03:57:28.158Z,14.15
2023-02-14T04:00:00.285Z,14.15
2023-02-14T04:02:42.082Z,13.38
2023-02-14T04:05:19.821Z,14.18
2023-02-14T04:07:57.119Z,14.52
2023-02-14T04:10:29.085Z,13.98
2023-02-14T04:13:01.364Z,13.43
2023-02-14T04:15:33.304Z,11.90
2023-02-14T04:18:24.236Z,14.23
2023-02-14T04:23:28.557Z,13.43
2023-02-14T04:26:00.566Z,13.63
2023-02-14T04:28:33.228Z,14.38
2023-02-14T04:31:07.115Z,14.68
2023-02-14T04:33:39.778Z,14.35
2023-02-14T04:36:12.006Z,14.50
2023-02-14T04:38:43.968Z,13.13
2023-02-14T04:41:15.901Z,12.88
2023-02-14T04:43:47.866Z,13.43
2023-02-14T04:46:19.743Z,12.63
2023-02-14T04:48:51.602Z,14.70
2023-02-14T04:51:23.602Z,13.90
2023-02-14T04:53:55.595Z,12.95
2023-02-14T04:56:27.586Z,13.40
2023-02-14T04:58:59.586Z,13.85
2023-02-14T05:01:31.685Z,13.77
2023-02-14T05:04:03.774Z,15.85
2023-02-14T05:06:35.929Z,14.15
2023-02-14T05:09:07.962Z,16.02
2023-02-14T05:11:39.884Z,12.65
2023-02-14T05:14:12.148Z,14.32
2023-02-14T05:16:44.209Z,14.55
2023-02-14T05:19:16.402Z,14.23
2023-02-14T05:21:48.416Z,16.02
2023-02-14T05:24:20.417Z,16.45
2023-02-14T05:26:52.663Z,17.67
2023-02-14T05:29:25.003Z,15.10
2023-02-14T05:31:57.139Z,16.35
2023-02-14T05:34:29.292Z,15.60
2023-02-14T05:37:03.472Z,16.88
2023-02-14T05:39:35.410Z,15.93
2023-02-14T05:44:39.341Z,17.42
2023-02-14T05:47:13.089Z,17.42
2023-02-14T05:49:45.279Z,17.77
2023-02-14T05:52:17.174Z,16.42
2023-02-14T05:54:49.173Z,17.92
2023-02-14T05:57:21.404Z,17.58
2023-02-14T05:59:53.635Z,16.58
2023-02-14T06:02:25.923Z,15.32
2023-02-14T06:04:57.798Z,14.90
2023-02-14T06:07:29.761Z,16.17
2023-02-14T06:10:01.839Z,16.65
2023-02-14T06:12:33.836Z,16.65
2023-02-14T06:15:06.207Z,17.88
2023-02-14T06:17:38.371Z,16.88
2023-02-14T06:20:11.319Z,16.40
2023-02-14T06:22:43.195Z,16.85
2023-02-14T06:25:15.145Z,15.95
2023-02-14T06:27:49.134Z,16.23
2023-02-14T06:30:21.570Z,15.32
2023-02-14T06:32:53.527Z,15.77
2023-02-14T06:35:25.620Z,16.05
2023-02-14T06:37:57.631Z,16.52
2023-02-14T06:40:29.575Z,15.50
2023-02-14T06:43:02.751Z,14.88
2023-02-14T06:45:34.767Z,14.05
2023-02-14T06:48:06.780Z,14.75
2023-02-14T06:50:41.031Z,14.52
2023-02-14T06:53:12.990Z,16.20
2023-02-14T06:55:45.019Z,14.90
2023-02-14T06:58:17.066Z,17.63
2023-02-14T07:00:49.034Z,22.00
2023-02-14T07:03:21.032Z,15.23
2023-02-14T07:05:53.849Z,15.73
2023-02-14T07:08:26.371Z,22.40
2023-02-14T07:10:59.405Z,24.35
2023-02-14T07:13:31.590Z,17.85
2023-02-14T07:16:04.753Z,19.42
2023-02-14T07:18:36.689Z,17.42
2023-02-14T07:21:08.575Z,18.02
2023-02-14T07:23:40.656Z,19.95
2023-02-14T07:26:12.659Z,18.25
2023-02-14T07:28:45.854Z,18.02
2023-02-14T07:31:20.209Z,19.38
2023-02-14T07:33:52.626Z,16.48
2023-02-14T07:36:24.598Z,22.35
2023-02-14T07:38:57.784Z,20.70
2023-02-14T07:41:29.966Z,21.35
2023-02-14T07:44:01.957Z,22.55
2023-02-14T07:46:33.968Z,21.58
2023-02-14T07:49:05.954Z,21.42
2023-02-14T07:51:37.948Z,21.85
2023-02-14T07:54:09.924Z,23.65
2023-02-14T07:56:42.036Z,21.45
2023-02-14T07:59:14.275Z,21.40
2023-02-14T08:01:46.371Z,20.77
2023-02-14T08:04:18.614Z,21.52
2023-02-14T08:06:50.507Z,21.73
2023-02-14T08:09:25.412Z,21.73
2023-02-14T08:12:17.125Z,24.67
2023-02-14T08:14:49.122Z,20.60
2023-02-14T08:17:21.068Z,20.58
2023-02-14T08:19:53.048Z,26.23
2023-02-14T08:22:25.008Z,23.42
2023-02-14T08:24:56.956Z,23.88
2023-02-14T08:27:28.944Z,24.25
2023-02-14T08:30:00.987Z,25.80
2023-02-14T08:32:33.091Z,22.75
2023-02-14T08:35:05.388Z,23.70
2023-02-14T08:37:37.381Z,25.05
2023-02-14T08:40:09.818Z,25.00
2023-02-14T08:42:42.469Z,24.55
2023-02-14T08:45:14.749Z,24.98
2023-02-14T08:47:46.623Z,22.70
2023-02-14T08:50:19.236Z,23.52
2023-02-14T08:52:51.107Z,24.70
2023-02-14T08:55:23.195Z,28.63
2023-02-14T08:57:57.387Z,26.20
2023-02-14T09:00:30.096Z,28.35
2023-02-14T09:03:02.309Z,23.45
2023-02-14T09:05:34.895Z,24.30
2023-02-14T09:08:07.984Z,28.38
2023-02-14T09:10:39.941Z,21.98
2023-02-14T09:13:12.291Z,21.90
2023-02-14T09:15:44.261Z,21.88
2023-02-14T09:18:16.771Z,21.83
2023-02-14T09:20:48.852Z,22.05
2023-02-14T09:23:20.856Z,20.38
2023-02-14T09:25:59.733Z,20.67
2023-02-14T09:28:32.234Z,20.75
2023-02-14T09:31:18.954Z,25.75
2023-02-14T09:34:11.362Z,24.63
2023-02-14T09:36:43.484Z,24.27
2023-02-14T09:39:16.120Z,24.98
2023-02-14T09:42:06.389Z,24.10
2023-02-14T09:44:58.382Z,23.55
2023-02-14T09:47:52.400Z,24.77
2023-02-14T09:50:56.640Z,25.73
2023-02-14T09:53:37.499Z,22.92
2023-02-14T09:59:05.666Z,22.27
2023-02-14T10:01:50.203Z,20.05
2023-02-14T10:04:48.461Z,30.98
2023-02-14T10:07:40.489Z,27.73
2023-02-14T10:10:21.561Z,26.13
2023-02-14T10:13:01.738Z,26.05
2023-02-14T10:15:43.725Z,25.70
2023-02-14T10:18:44.873Z,22.50
2023-02-14T10:21:57.219Z,22.42
2023-02-14T10:24:37.204Z,22.17
2023-02-14T10:27:17.333Z,20.20
2023-02-14T10:29:49.384Z,19.45
2023-02-14T10:32:42.312Z,18.55
2023-02-14T10:35:26.412Z,18.38
2023-02-14T10:38:04.360Z,18.60
2023-02-14T10:40:56.527Z,20.17
2023-02-14T10:43:34.609Z,17.10
2023-02-14T10:46:27.754Z,20.30
2023-02-14T10:49:29.222Z,18.85
2023-02-14T10:52:32.120Z,20.33
2023-02-14T10:55:44.926Z,23.75
2023-02-14T10:58:20.633Z,25.88
2023-02-14T11:01:00.030Z,29.08
2023-02-14T11:03:35.493Z,26.90
2023-02-14T11:06:09.924Z,22.90
2023-02-14T11:08:42.213Z,26.00
2023-02-14T11:11:27.679Z,26.10
2023-02-14T11:13:59.712Z,27.10
2023-02-14T11:16:35.088Z,23.60
2023-02-14T11:19:16.299Z,22.42
2023-02-14T11:21:51.226Z,21.15
2023-02-14T11:24:31.689Z,21.50
2023-02-14T11:27:05.782Z,18.95
2023-02-14T11:29:49.350Z,20.35
2023-02-14T11:32:30.028Z,20.52
2023-02-14T11:35:21.385Z,20.30
2023-02-14T11:37:55.798Z,21.67
2023-02-14T11:40:34.461Z,21.73
2023-02-14T11:43:15.351Z,21.20
2023-02-14T11:45:49.567Z,22.20
2023-02-14T11:48:37.839Z,22.13
2023-02-14T11:51:14.286Z,22.48
2023-02-14T11:53:52.500Z,22.30
2023-02-14T11:56:24.887Z,22.38
2023-02-14T11:58:58.440Z,23.45
2023-02-14T12:01:36.352Z,24.75
2023-02-14T12:04:18.243Z,22.20
2023-02-14T12:06:50.590Z,22.25
2023-02-14T12:09:22.427Z,21.08
2023-02-14T12:11:58.911Z,19.90
2023-02-14T12:14:34.054Z,19.58
2023-02-14T12:17:12.150Z,20.77
2023-02-14T12:19:52.095Z,22.35
2023-02-14T12:22:34.033Z,23.63
2023-02-14T12:25:17.664Z,26.95
2023-02-14T12:27:56.102Z,24.10
2023-02-14T12:30:32.446Z,24.70
2023-02-14T12:33:19.557Z,28.35
2023-02-14T12:36:18.945Z,21.33
2023-02-14T12:39:00.129Z,19.70
2023-02-14T12:41:41.098Z,21.77
2023-02-14T12:44:41.181Z,22.67
2023-02-14T12:47:28.298Z,21.40
2023-02-14T12:50:27.962Z,23.88
2023-02-14T12:53:18.873Z,22.88
2023-02-14T12:59:01.965Z,21.35
2023-02-14T13:02:04.869Z,48.47
2023-02-14T13:04:59.068Z,21.90
2023-02-14T13:07:40.113Z,23.00
2023-02-14T13:10:19.226Z,27.80
2023-02-14T13:12:59.545Z,26.17
2023-02-14T13:15:53.266Z,22.63
2023-02-14T13:18:35.941Z,23.10
2023-02-14T13:21:12.404Z,23.30
2023-02-14T13:23:48.056Z,23.70
2023-02-14T13:26:34.883Z,21.17
2023-02-14T13:29:13.887Z,25.38
2023-02-14T13:31:46.647Z,23.75
2023-02-14T13:34:41.097Z,27.30
2023-02-14T13:37:23.144Z,25.75
2023-02-14T13:40:02.073Z,24.45
2023-02-14T13:42:50.131Z,24.67
2023-02-14T13:45:40.282Z,25.58
2023-02-14T13:48:21.873Z,24.70
2023-02-14T13:51:01.639Z,28.38
2023-02-14T13:53:48.711Z,27.25
2023-02-14T13:56:21.354Z,28.92
2023-02-14T13:59:04.902Z,28.63
2023-02-14T14:01:42.624Z,35.03
2023-02-14T14:04:43.990Z,33.55
2023-02-14T14:07:34.106Z,25.58
2023-02-14T14:10:06.854Z,29.77
2023-02-14T14:12:40.096Z,21.95
2023-02-14T14:15:17.077Z,27.77
2023-02-14T14:18:13.687Z,25.33
2023-02-14T14:20:48.420Z,28.10
2023-02-14T14:23:32.953Z,30.70
2023-02-14T14:26:40.553Z,27.95
2023-02-14T14:29:49.845Z,23.13
2023-02-14T14:32:35.686Z,25.75
2023-02-14T14:35:19.845Z,25.60
2023-02-14T14:37:57.375Z,30.55
2023-02-14T14:40:32.418Z,28.88
2023-02-14T14:43:13.155Z,27.50
2023-02-14T14:45:51.830Z,28.98
2023-02-14T14:48:45.958Z,35.28
2023-02-14T14:51:29.812Z,36.00
2023-02-14T14:54:06.462Z,30.95
2023-02-14T14:56:51.845Z,24.92
2023-02-14T14:59:23.693Z,29.50
2023-02-14T15:01:55.823Z,30.02
2023-02-14T15:04:31.788Z,32.90
2023-02-14T15:07:28.124Z,28.52
2023-02-14T15:10:01.155Z,27.73
2023-02-14T15:12:52.142Z,41.63
2023-02-14T15:17:56.470Z,33.63
2023-02-14T15:20:28.584Z,37.45
2023-02-14T15:23:01.639Z,32.58
2023-02-14T15:25:37.060Z,35.33
2023-02-14T15:28:17.534Z,35.63
2023-02-14T15:30:57.105Z,35.55
2023-02-14T15:33:31.417Z,32.50
2023-02-14T15:36:07.006Z,34.30
2023-02-14T15:38:42.264Z,38.20
2023-02-14T15:41:16.127Z,32.72
2023-02-14T15:43:54.075Z,41.65
2023-02-14T15:46:39.352Z,37.50
2023-02-14T15:49:16.651Z,45.20
2023-02-14T15:51:50.770Z,41.80
2023-02-14T15:54:58.308Z,36.40
2023-02-14T15:57:30.766Z,45.40
2023-02-14T16:00:11.559Z,39.90
2023-02-14T16:05:22.216Z,44.33
2023-02-14T16:08:00.112Z,39.30
2023-02-14T16:10:34.213Z,40.70
2023-02-14T16:13:16.459Z,36.53
2023-02-14T16:16:01.465Z,37.13
2023-02-14T16:18:41.425Z,32.45
2023-02-14T16:21:30.781Z,34.17
2023-02-14T16:24:11.019Z,31.80
2023-02-14T16:26:45.066Z,33.50
2023-02-14T16:29:21.207Z,33.33
2023-02-14T16:32:14.588Z,34.20
2023-02-14T16:34:48.502Z,33.72
2023-02-14T16:37:24.049Z,38.17
2023-02-14T16:39:59.818Z,42.38
2023-02-14T16:42:33.012Z,34.10
2023-02-14T16:45:05.536Z,40.75
2023-02-14T16:47:37.442Z,47.17
2023-02-14T16:50:10.008Z,45.72
2023-02-14T16:52:44.514Z,38.78
2023-02-14T16:55:20.246Z,44.75
2023-02-14T16:57:53.485Z,40.88
2023-02-14T17:00:27.677Z,59.25
2023-02-14T17:03:11.763Z,39.53
2023-02-14T17:05:44.027Z,53.63
2023-02-14T17:08:16.327Z,49.83
2023-02-14T17:10:49.097Z,50.75
2023-02-14T17:13:24.522Z,44.92
2023-02-14T17:15:57.310Z,42.67
2023-02-14T17:18:32.533Z,40.45
2023-02-14T17:21:05.442Z,44.50
2023-02-14T17:23:37.396Z,40.10
2023-02-14T17:26:11.530Z,42.10
2023-02-14T17:28:43.560Z,41.42
2023-02-14T17:31:15.956Z,41.30
2023-02-14T17:33:48.850Z,48.33
2023-02-14T17:36:20.836Z,47.25
2023-02-14T17:38:54.908Z,45.17
2023-02-14T17:41:27.061Z,51.50
2023-02-14T17:44:00.541Z,44.78
2023-02-14T17:46:32.775Z,41.08
2023-02-14T17:49:04.716Z,42.58
2023-02-14T17:51:36.575Z,44.70
2023-02-14T17:54:08.500Z,40.40
2023-02-14T17:56:40.707Z,46.97
2023-02-14T17:59:12.672Z,46.90
2023-02-14T18:01:44.736Z,45.42
2023-02-14T18:04:16.633Z,51.95
2023-02-14T18:06:48.630Z,52.05
2023-02-14T18:09:20.481Z,51.10
2023-02-14T18:11:52.430Z,38.97
2023-02-14T18:14:24.829Z,35.85
2023-02-14T18:16:56.687Z,42.63
2023-02-14T18:19:29.341Z,39.00
2023-02-14T18:22:01.225Z,41.40
2023-02-14T18:24:33.233Z,39.17
2023-02-14T18:27:06.432Z,48.70
2023-02-14T18:29:39.592Z,40.53
2023-02-14T18:32:11.804Z,47.33
2023-02-14T18:34:43.809Z,44.67
2023-02-14T18:37:15.768Z,44.00
2023-02-14T18:39:47.754Z,40.22
2023-02-14T18:42:19.701Z,36.15
2023-02-14T18:44:51.639Z,45.80
2023-02-14T18:47:23.597Z,36.55
2023-02-14T18:49:55.588Z,37.65
2023-02-14T18:52:27.544Z,48.55
2023-02-14T18:54:59.777Z,40.30
2023-02-14T18:57:34.493Z,43.50
2023-02-14T19:00:12.258Z,41.15
2023-02-14T19:02:44.220Z,43.78
2023-02-14T19:05:16.226Z,46.83
2023-02-14T19:07:48.227Z,42.42
2023-02-14T19:10:20.405Z,43.90
2023-02-14T19:12:53.497Z,42.30
2023-02-14T19:15:25.476Z,51.28
2023-02-14T19:17:57.476Z,42.40
2023-02-14T19:20:29.497Z,40.58
2023-02-14T19:23:01.432Z,38.50
2023-02-14T19:25:34.847Z,39.88
2023-02-14T19:28:10.015Z,38.60
2023-02-14T19:30:41.998Z,43.45
2023-02-14T19:33:13.957Z,41.85
2023-02-14T19:35:45.973Z,39.97
2023-02-14T19:38:17.892Z,41.65
2023-02-14T19:40:49.996Z,40.80
2023-02-14T19:43:21.924Z,41.00
2023-02-14T19:45:53.775Z,41.17
2023-02-14T19:48:25.826Z,44.00
2023-02-14T19:51:00.894Z,42.15
2023-02-14T19:53:35.121Z,44.30
2023-02-14T19:56:07.012Z,43.65
2023-02-14T19:58:39.266Z,49.90
2023-02-14T20:01:42.308Z,45.33
2023-02-14T20:04:18.024Z,48.65
2023-02-14T20:06:50.885Z,45.65
2023-02-14T20:09:23.744Z,51.00
2023-02-14T20:11:57.332Z,43.75
2023-02-14T20:14:50.267Z,48.00
2023-02-14T20:17:23.077Z,47.03
2023-02-14T20:19:56.278Z,47.70
2023-02-14T20:22:28.457Z,47.35
2023-02-14T20:25:00.461Z,46.38
2023-02-14T20:27:32.396Z,47.10
2023-02-14T20:30:06.713Z,52.55
2023-02-14T20:32:38.705Z,51.08
2023-02-14T20:35:10.577Z,46.97
2023-02-14T20:37:42.603Z,50.83
2023-02-14T20:40:14.725Z,52.15
2023-02-14T20:42:49.639Z,52.17
2023-02-14T20:45:21.616Z,46.53
2023-02-14T20:47:53.793Z,47.10
2023-02-14T20:50:25.782Z,48.20
2023-02-14T20:52:57.942Z,51.53
2023-02-14T20:55:31.442Z,50.47
2023-02-14T20:58:04.175Z,50.53
2023-02-14T21:00:36.166Z,46.55
2023-02-14T21:03:08.153Z,48.80
2023-02-14T21:05:40.908Z,47.20
2023-02-14T21:08:12.856Z,46.88
2023-02-14T21:10:44.820Z,47.28
2023-02-14T21:13:16.682Z,44.00
2023-02-14T21:15:48.711Z,42.95
2023-02-14T21:18:20.727Z,45.80
2023-02-14T21:20:54.914Z,44.08
2023-02-14T21:23:26.855Z,44.00
2023-02-14T21:25:58.885Z,42.20
2023-02-14T21:28:30.990Z,46.03
2023-02-14T21:31:08.352Z,43.95
2023-02-14T21:33:40.498Z,42.63
2023-02-14T21:36:15.184Z,43.17
2023-02-14T21:38:47.327Z,47.40
2023-02-14T21:41:21.873Z,43.35
2023-02-14T21:43:58.005Z,46.72
2023-02-14T21:46:37.164Z,41.85
2023-02-14T21:49:27.689Z,46.38
2023-02-14T21:51:59.788Z,44.13
2023-02-14T21:54:31.648Z,47.50
2023-02-14T21:57:03.645Z,46.40
2023-02-14T21:59:35.555Z,44.45
2023-02-14T22:02:07.830Z,44.47
2023-02-14T22:04:40.519Z,45.22
2023-02-14T22:07:12.702Z,42.70
2023-02-14T22:09:44.588Z,44.10
2023-02-14T22:12:16.580Z,42.40
2023-02-14T22:14:48.450Z,46.13
2023-02-14T22:17:20.374Z,41.50
2023-02-14T22:19:52.296Z,41.53
2023-02-14T22:22:24.350Z,41.25
2023-02-14T22:24:56.360Z,40.28
2023-02-14T22:27:28.356Z,39.80
2023-02-14T22:30:00.711Z,39.70
2023-02-14T22:32:32.699Z,39.50
2023-02-14T22:35:04.921Z,39.33
2023-02-14T22:37:36.988Z,37.17
2023-02-14T22:40:10.185Z,37.20
2023-02-14T22:42:42.156Z,37.40
2023-02-14T22:45:14.168Z,40.90
2023-02-14T22:47:46.039Z,38.75
2023-02-14T22:50:18.264Z,38.30
2023-02-14T22:52:50.260Z,40.95
2023-02-14T22:55:22.434Z,42.33
2023-02-14T22:57:55.105Z,38.08
2023-02-14T23:00:27.176Z,40.22
2023-02-14T23:02:59.184Z,40.63
2023-02-14T23:05:31.224Z,40.47
2023-02-14T23:08:03.291Z,39.05
2023-02-14T23:10:35.231Z,37.10
2023-02-14T23:13:25.812Z,41.30
2023-02-14T23:16:16.616Z,41.38
2023-02-14T23:21:57.369Z,37.20
2023-02-14T23:24:29.310Z,38.30
2023-02-14T23:27:01.956Z,38.72
2023-02-14T23:29:34.508Z,37.97
2023-02-14T23:32:07.781Z,40.33
2023-02-14T23:34:41.778Z,40.83
2023-02-14T23:37:14.807Z,39.72
2023-02-14T23:39:46.832Z,38.83
2023-02-14T23:42:19.114Z,37.55
2023-02-14T23:44:51.111Z,40.38
2023-02-14T23:47:23.106Z,38.55
2023-02-14T23:49:55.264Z,36.05
2023-02-14T23:52:27.242Z,37.35
2023-02-14T23:54:59.212Z,39.95
2023-02-14T23:57:32.000Z,39.78
